Estación Meteorológica Peña el Pijo (Robertgarden) [ 12/11/18 09:44:51 CET ]

Fecha Hora Presion(HPa) Temp (°C) Humedad % Rocio (°C) Viento ( m/s) Direccion Lluvia 1Hora(mm) Lluvia 24H(mm) LLuvia Total(mm)
2018-Dec-04 01:01:48 1014.600 4.6 76 0.7         154.88
2018-Dec-04 02:10:11 1014.400 3.4 77 -0.3         154.88
2018-Dec-04 03:01:41 1014.300 3.8 78 0.3         154.88
2018-Dec-04 04:01:46 1014.100 3.8 79 0.5         154.88
2018-Dec-04 05:01:44 1013.900 3.3 79 0.0         154.88
2018-Dec-04 06:01:44 1013.400 3.4 80 0.3         154.88
2018-Dec-04 07:01:46 1013.700 3.8 80 0.7         154.88
2018-Dec-04 08:01:52 1014.100 3.6 80 0.5         154.88
2018-Dec-04 09:01:46 1014.300 3.4 81 0.5         154.88
2018-Dec-04 10:01:42 1014.700 10.1 79 6.6         154.88
2018-Dec-04 11:01:49 1015.100 17.3 54 7.8         154.88
2018-Dec-04 12:01:52 1014.500 20.6 42 7.2         154.88
2018-Dec-04 13:01:59 1013.800 21.9 38 6.9         154.88
2018-Dec-04 14:01:50 1013.400 24.1 28 4.3         154.88
2018-Dec-04 15:01:56 1013.300 24.9 27 4.5         154.88
2018-Dec-04 16:01:48 1013.400 23.3 28 3.6         154.88
2018-Dec-04 17:02:01 1013.400 18.4 38 3.8         154.88
2018-Dec-04 18:01:38 1014.100 14.2 47 3.0         154.88
2018-Dec-04 19:01:36 1014.400 10.5 54 1.6         154.88
2018-Dec-04 20:01:39 1015.000 8.2 62 1.3         154.88
2018-Dec-04 21:01:33 1015.300 7.2 66 1.2         154.88
2018-Dec-04 22:01:55 1015.600 5.8 70 0.8         154.88
2018-Dec-04 23:01:51 1015.900 5.5 72 0.9         154.88

Temperatura Máxima:24°    Temperatura Mínima:
Presión Máxima:1015.900 Hpa    Presión Mínima:1013.300 Hpa


Volver